Time;durP1;ratioP1;P1;durP2;ratioP2;P2;SDS_P1;SDS_P2;PMS_P1;PMS_P2;Temp;Humidity;BMP_temperature;BMP_pressure;BME280_temperature;BME280_humidity;BME280_pressure;Samples;Min_cycle;Max_cycle;Signal;HPM_P1;HPM_P2
2023/01/08 00:00:06;;;;;;;18.05;16.63;;;8.20;99.90;;;;;;5020925;28;20076;-76
2023/01/08 00:02:38;;;;;;;16.80;15.68;;;8.20;99.90;;;;;;5022579;28;20042;-75
2023/01/08 00:05:05;;;;;;;17.48;16.13;;;8.10;99.90;;;;;;5020119;28;20045;-76
2023/01/08 00:07:32;;;;;;;17.10;15.85;;;8.10;99.90;;;;;;5020049;28;20041;-76
2023/01/08 00:09:58;;;;;;;17.70;16.23;;;8.20;99.90;;;;;;5024410;28;20049;-75
2023/01/08 00:12:25;;;;;;;17.42;16.08;;;8.10;99.90;;;;;;5020850;28;20044;-76
2023/01/08 00:14:51;;;;;;;16.48;15.27;;;8.10;99.90;;;;;;5020649;28;20056;-75
2023/01/08 00:17:18;;;;;;;17.35;16.15;;;8.10;99.90;;;;;;5020430;28;20045;-76
2023/01/08 00:19:45;;;;;;;17.33;15.93;;;8.10;99.90;;;;;;5019133;28;20049;-76
2023/01/08 00:22:11;;;;;;;17.08;15.68;;;8.10;99.90;;;;;;5016463;28;20045;-76
2023/01/08 00:24:38;;;;;;;17.20;15.73;;;8.10;99.90;;;;;;5004649;28;20057;-76
2023/01/08 00:27:04;;;;;;;17.60;16.15;;;8.10;99.90;;;;;;5007253;28;20045;-75
2023/01/08 00:29:31;;;;;;;17.70;16.23;;;8.00;99.90;;;;;;5022546;28;20041;-75
2023/01/08 00:31:58;;;;;;;17.95;16.42;;;8.00;99.90;;;;;;5018702;28;20060;-76
2023/01/08 00:34:25;;;;;;;17.88;16.27;;;8.00;99.90;;;;;;5015110;28;20037;-76
2023/01/08 00:36:51;;;;;;;17.67;16.17;;;8.00;99.90;;;;;;5017517;28;20517;-76
2023/01/08 00:39:18;;;;;;;17.08;15.75;;;8.00;99.90;;;;;;5020504;28;20037;-76
2023/01/08 00:41:45;;;;;;;18.65;17.20;;;8.00;99.90;;;;;;5017445;28;20040;-76
2023/01/08 00:44:11;;;;;;;17.88;16.17;;;8.10;99.90;;;;;;5021288;28;20045;-75
2023/01/08 00:46:38;;;;;;;16.58;15.18;;;8.10;99.90;;;;;;5020859;28;20037;-76
2023/01/08 00:49:04;;;;;;;17.38;15.90;;;8.10;99.90;;;;;;5018941;28;20042;-76
2023/01/08 00:51:31;;;;;;;17.10;15.77;;;8.10;99.90;;;;;;5020455;28;20043;-75
2023/01/08 00:53:58;;;;;;;19.15;17.45;;;8.20;99.90;;;;;;5021829;28;20052;-76
2023/01/08 00:56:25;;;;;;;18.38;16.98;;;8.20;99.90;;;;;;5020129;28;20065;-76
2023/01/08 00:58:51;;;;;;;17.45;16.08;;;8.30;99.90;;;;;;5001534;28;20783;-76
2023/01/08 01:01:18;;;;;;;17.25;15.85;;;8.30;99.90;;;;;;5019638;28;20048;-75
2023/01/08 01:03:45;;;;;;;17.77;16.45;;;8.30;99.90;;;;;;5017567;28;20068;-76
2023/01/08 01:06:13;;;;;;;17.15;15.95;;;8.30;99.90;;;;;;5020920;28;20044;-76
2023/01/08 01:08:40;;;;;;;17.65;16.33;;;8.30;99.90;;;;;;5024035;28;20055;-76
2023/01/08 01:11:09;;;;;;;17.73;16.48;;;8.30;99.90;;;;;;5022337;28;20053;-76
2023/01/08 01:13:36;;;;;;;18.30;16.67;;;8.30;99.90;;;;;;5014106;28;20063;-76
2023/01/08 01:16:02;;;;;;;18.27;16.77;;;8.30;99.90;;;;;;5022915;28;20037;-76
2023/01/08 01:18:30;;;;;;;18.40;16.80;;;8.40;99.90;;;;;;5017673;28;20049;-76
2023/01/08 01:20:57;;;;;;;20.63;18.65;;;8.50;99.90;;;;;;5019094;28;20033;-76
2023/01/08 01:23:23;;;;;;;20.67;19.02;;;8.50;99.90;;;;;;5017398;28;20042;-75
2023/01/08 01:25:50;;;;;;;20.20;18.60;;;8.40;99.90;;;;;;5018028;28;20055;-75
2023/01/08 01:28:17;;;;;;;20.13;18.40;;;8.40;99.90;;;;;;5021108;28;20044;-76
2023/01/08 01:30:43;;;;;;;20.60;18.90;;;8.40;99.90;;;;;;5018468;28;20091;-75
2023/01/08 01:33:10;;;;;;;20.27;18.67;;;8.30;99.90;;;;;;5017405;28;20037;-76
2023/01/08 01:35:37;;;;;;;19.95;18.23;;;8.30;99.90;;;;;;5020821;28;20111;-76
2023/01/08 01:38:03;;;;;;;19.88;18.17;;;8.30;99.90;;;;;;5022247;28;20038;-75
2023/01/08 01:40:30;;;;;;;20.25;18.45;;;8.30;99.90;;;;;;5018935;28;20074;-76
2023/01/08 01:42:57;;;;;;;20.58;18.77;;;8.30;99.90;;;;;;5020829;28;20108;-76
2023/01/08 01:45:30;;;;;;;19.48;17.88;;;8.40;99.90;;;;;;5023936;28;20037;-76
2023/01/08 01:48:09;;;;;;;20.23;18.58;;;8.30;99.90;;;;;;5021038;28;20042;-76
2023/01/08 01:50:45;;;;;;;19.35;17.65;;;8.30;99.90;;;;;;5018348;28;20047;-76
2023/01/08 01:53:20;;;;;;;18.55;16.95;;;8.30;99.90;;;;;;5022275;28;20136;-76
2023/01/08 01:55:48;;;;;;;19.52;17.92;;;8.30;99.90;;;;;;5018146;28;20143;-76
2023/01/08 01:58:22;;;;;;;19.40;17.70;;;8.30;99.90;;;;;;5014527;28;20033;-76
2023/01/08 02:00:51;;;;;;;19.63;18.00;;;8.20;99.90;;;;;;5013968;28;20060;-76
2023/01/08 02:03:25;;;;;;;19.38;17.73;;;8.20;99.90;;;;;;5016281;28;20435;-76
2023/01/08 02:05:58;;;;;;;18.45;16.83;;;8.20;99.90;;;;;;5018295;28;20064;-76
2023/01/08 02:08:29;;;;;;;16.88;15.30;;;8.20;99.90;;;;;;5021692;28;20059;-75
2023/01/08 02:11:07;;;;;;;16.83;15.52;;;8.20;99.90;;;;;;5013325;28;20049;-76
2023/01/08 02:13:40;;;;;;;15.75;14.30;;;8.30;99.90;;;;;;5011491;28;20052;-76
2023/01/08 02:16:33;;;;;;;16.25;14.65;;;8.30;99.90;;;;;;5013778;28;20056;-76
2023/01/08 02:19:21;;;;;;;16.00;14.80;;;8.40;99.90;;;;;;5026267;28;20123;-76
2023/01/08 02:22:03;;;;;;;17.90;16.40;;;8.40;99.90;;;;;;5021598;28;20050;-76
2023/01/08 02:24:36;;;;;;;16.08;14.77;;;8.50;99.90;;;;;;5009882;28;20049;-75
2023/01/08 02:27:05;;;;;;;15.82;14.57;;;8.50;99.90;;;;;;5027552;28;20045;-76
2023/01/08 02:29:32;;;;;;;16.83;15.18;;;8.50;99.90;;;;;;5033215;28;20045;-76
2023/01/08 02:31:59;;;;;;;16.92;15.43;;;8.50;99.90;;;;;;5018171;28;20053;-76
2023/01/08 02:34:27;;;;;;;17.42;15.77;;;8.50;99.90;;;;;;5019376;28;20171;-76
2023/01/08 02:36:55;;;;;;;15.77;14.57;;;8.40;99.90;;;;;;5023535;28;20064;-75
2023/01/08 02:39:50;;;;;;;16.58;15.18;;;8.40;99.90;;;;;;5024949;28;20045;-75
2023/01/08 02:42:22;;;;;;;15.77;14.43;;;8.40;99.90;;;;;;5020992;28;20045;-76
2023/01/08 02:45:16;;;;;;;17.30;15.82;;;8.40;99.90;;;;;;5013757;28;20053;-76
2023/01/08 02:47:54;;;;;;;16.60;15.13;;;8.40;99.90;;;;;;5018090;28;20045;-75
2023/01/08 02:50:39;;;;;;;18.52;16.67;;;8.40;99.90;;;;;;5019374;28;20064;-76
2023/01/08 02:53:14;;;;;;;;;;;8.40;99.90;;;;;;5022721;28;20132;-76
2023/01/08 02:55:46;;;;;;;17.80;16.25;;;8.30;99.90;;;;;;5023194;28;20824;-76
2023/01/08 02:58:13;;;;;;;16.63;15.02;;;8.30;99.90;;;;;;5022196;28;20633;-76
2023/01/08 03:00:42;;;;;;;17.92;16.42;;;8.30;99.90;;;;;;5024412;28;20045;-76
2023/01/08 03:03:20;;;;;;;16.92;15.52;;;8.30;99.90;;;;;;5009879;28;20531;-75
2023/01/08 03:05:54;;;;;;;16.77;15.18;;;8.30;99.90;;;;;;5026485;28;20033;-76
2023/01/08 03:08:22;;;;;;;17.40;15.88;;;8.30;99.90;;;;;;5019863;28;20057;-76
2023/01/08 03:10:55;;;;;;;16.42;14.93;;;8.30;99.90;;;;;;5018599;28;20052;-76
2023/01/08 03:13:46;;;;;;;16.13;14.82;;;8.20;99.90;;;;;;5028154;28;20071;-75
2023/01/08 03:16:22;;;;;;;18.23;15.45;;;8.30;99.90;;;;;;5022745;28;20128;-76
2023/01/08 03:18:56;;;;;;;16.05;14.65;;;8.30;99.90;;;;;;5027611;28;20422;-76
2023/01/08 03:21:24;;;;;;;16.80;15.23;;;8.30;99.90;;;;;;5021294;28;20037;-76
2023/01/08 03:23:51;;;;;;;16.65;15.15;;;8.20;99.90;;;;;;5022962;28;20037;-76
2023/01/08 03:26:24;;;;;;;15.63;13.93;;;8.20;99.90;;;;;;5024246;28;20562;-76
2023/01/08 03:28:54;;;;;;;15.43;14.13;;;8.20;99.90;;;;;;5020467;28;20040;-76
2023/01/08 03:31:24;;;;;;;15.93;14.63;;;8.20;99.90;;;;;;5023327;28;20045;-76
2023/01/08 03:33:52;;;;;;;15.95;14.55;;;8.20;99.90;;;;;;5023119;28;20060;-76
2023/01/08 03:36:24;;;;;;;15.60;14.18;;;8.20;99.90;;;;;;5021914;28;20049;-76
2023/01/08 03:39:04;;;;;;;14.48;13.07;;;8.10;99.90;;;;;;5019157;28;20045;-76
2023/01/08 03:41:33;;;;;;;14.75;13.35;;;8.10;99.90;;;;;;5020786;28;20045;-76
2023/01/08 03:44:00;;;;;;;14.43;12.93;;;8.10;99.90;;;;;;5030870;28;20052;-76
2023/01/08 03:46:41;;;;;;;13.98;12.48;;;8.10;99.90;;;;;;5021110;28;20044;-76
2023/01/08 03:49:08;;;;;;;14.27;12.82;;;8.00;99.90;;;;;;5023211;28;20128;-76
2023/01/08 03:51:43;;;;;;;15.02;13.40;;;8.00;99.90;;;;;;5011510;28;20148;-76
2023/01/08 03:54:14;;;;;;;13.07;11.88;;;8.00;99.90;;;;;;5016630;28;20049;-77
2023/01/08 03:56:41;;;;;;;15.48;11.50;;;7.90;99.90;;;;;;5026186;28;20128;-78
2023/01/08 03:59:10;;;;;;;11.65;10.43;;;7.90;99.90;;;;;;5026205;28;20052;-80
2023/01/08 04:01:38;;;;;;;12.90;10.80;;;7.90;99.90;;;;;;5022594;28;20033;-78
2023/01/08 04:04:05;;;;;;;14.38;11.30;;;7.80;99.90;;;;;;5026803;28;20121;-77
2023/01/08 04:06:32;;;;;;;16.52;10.43;;;7.80;99.90;;;;;;5022250;28;20447;-77
2023/01/08 04:08:59;;;;;;;15.32;10.55;;;7.80;99.90;;;;;;5025477;28;20043;-77
2023/01/08 04:11:26;;;;;;;11.90;10.38;;;7.80;99.90;;;;;;5007520;28;20041;-77
2023/01/08 04:13:52;;;;;;;12.35;9.73;;;7.80;99.90;;;;;;5026475;28;20049;-77
2023/01/08 04:16:21;;;;;;;15.98;11.18;;;7.70;99.90;;;;;;5021930;28;20545;-77
2023/01/08 04:18:48;;;;;;;16.48;9.75;;;7.70;99.90;;;;;;5025070;28;20242;-77
2023/01/08 04:21:14;;;;;;;13.65;9.35;;;7.70;99.90;;;;;;5012451;28;20466;-76
2023/01/08 04:23:41;;;;;;;13.43;10.30;;;7.70;99.90;;;;;;5020036;28;20045;-76
2023/01/08 04:26:08;;;;;;;14.48;10.43;;;7.70;99.90;;;;;;5021666;28;20038;-76
2023/01/08 04:28:35;;;;;;;14.85;11.00;;;7.70;99.90;;;;;;5005108;28;20164;-77
2023/01/08 04:31:06;;;;;;;16.80;11.10;;;7.70;99.90;;;;;;5007806;28;20080;-77
2023/01/08 04:33:34;;;;;;;15.65;11.32;;;7.70;99.90;;;;;;5020035;28;20058;-77
2023/01/08 04:36:01;;;;;;;20.13;11.68;;;7.70;99.90;;;;;;5022508;28;20053;-78
2023/01/08 04:38:28;;;;;;;16.35;11.38;;;7.70;99.90;;;;;;5026552;28;20041;-77
2023/01/08 04:41:01;;;;;;;17.83;12.20;;;7.70;99.90;;;;;;5027770;28;20465;-76
2023/01/08 04:43:29;;;;;;;15.90;11.67;;;7.70;99.90;;;;;;5022202;28;20136;-77
2023/01/08 04:46:00;;;;;;;16.10;11.98;;;7.70;99.90;;;;;;5019807;28;20819;-77
2023/01/08 04:48:29;;;;;;;16.75;10.57;;;7.70;99.90;;;;;;5018164;28;20042;-77
2023/01/08 04:50:59;;;;;;;15.20;12.00;;;7.70;99.90;;;;;;5027138;28;20045;-77
2023/01/08 04:53:27;;;;;;;16.05;11.52;;;7.70;99.90;;;;;;5008842;28;20042;-77
2023/01/08 04:55:53;;;;;;;18.40;12.02;;;7.70;99.90;;;;;;5029118;28;20048;-77
2023/01/08 04:58:20;;;;;;;19.35;12.35;;;7.80;99.90;;;;;;5024806;28;20121;-77
2023/01/08 05:00:47;;;;;;;18.33;11.38;;;7.80;99.90;;;;;;5021008;28;20045;-78
2023/01/08 05:03:14;;;;;;;18.70;12.38;;;7.70;99.90;;;;;;5020805;28;20042;-76
2023/01/08 05:05:40;;;;;;;15.90;10.90;;;7.70;99.90;;;;;;5025086;28;20041;-77
2023/01/08 05:08:07;;;;;;;20.20;12.00;;;7.70;99.90;;;;;;5022669;28;20047;-77
2023/01/08 05:10:34;;;;;;;18.17;12.45;;;7.70;99.90;;;;;;5021121;28;20107;-76
2023/01/08 05:13:00;;;;;;;19.58;11.90;;;7.70;99.90;;;;;;5019097;28;20257;-77
2023/01/08 05:15:27;;;;;;;18.52;12.55;;;7.70;99.90;;;;;;5019267;28;20537;-77
2023/01/08 05:17:59;;;;;;;19.83;14.20;;;7.70;99.90;;;;;;5019933;28;20045;-77
2023/01/08 05:20:27;;;;;;;20.58;14.27;;;7.70;99.90;;;;;;5014020;28;20045;-78
2023/01/08 05:22:53;;;;;;;19.23;13.93;;;7.70;99.90;;;;;;5019882;28;20041;-77
2023/01/08 05:25:20;;;;;;;20.08;13.57;;;7.70;99.90;;;;;;5019588;28;20058;-77
2023/01/08 05:27:47;;;;;;;22.88;14.18;;;7.70;99.90;;;;;;5017102;28;20064;-77
2023/01/08 05:30:14;;;;;;;21.73;14.35;;;7.70;99.90;;;;;;5017978;28;20042;-77
2023/01/08 05:32:40;;;;;;;23.00;14.57;;;7.70;99.90;;;;;;5019277;28;20057;-77
2023/01/08 05:35:08;;;;;;;26.27;14.75;;;7.60;99.90;;;;;;5018923;28;20053;-77
2023/01/08 05:37:36;;;;;;;26.30;14.70;;;7.70;99.90;;;;;;5005827;28;20087;-76
2023/01/08 05:40:03;;;;;;;18.35;13.85;;;7.70;99.90;;;;;;5013243;28;20040;-77
2023/01/08 05:42:33;;;;;;;18.40;13.00;;;7.60;99.90;;;;;;5023698;28;20045;-77
2023/01/08 05:45:04;;;;;;;22.67;15.52;;;7.60;99.90;;;;;;5016013;28;20072;-77
2023/01/08 05:47:32;;;;;;;25.23;16.13;;;7.60;99.90;;;;;;5022191;28;20114;-77
2023/01/08 05:49:59;;;;;;;24.13;15.35;;;7.60;99.90;;;;;;5016816;28;20128;-77
2023/01/08 05:52:26;;;;;;;25.08;15.00;;;7.60;99.90;;;;;;5021661;28;20127;-77
2023/01/08 05:54:53;;;;;;;27.23;16.65;;;7.60;99.90;;;;;;5024386;28;20534;-77
2023/01/08 05:57:20;;;;;;;22.48;14.65;;;7.70;99.90;;;;;;5022693;28;20470;-77
2023/01/08 05:59:47;;;;;;;27.05;16.13;;;7.60;99.90;;;;;;5022597;28;20045;-76
2023/01/08 06:02:14;;;;;;;24.42;15.85;;;7.60;99.90;;;;;;5023665;28;20045;-77
2023/01/08 06:04:40;;;;;;;28.30;17.17;;;7.60;99.90;;;;;;5025341;28;20041;-76
2023/01/08 06:07:07;;;;;;;24.30;15.52;;;7.60;99.90;;;;;;5025827;28;20103;-76
2023/01/08 06:09:34;;;;;;;29.95;16.58;;;7.60;99.90;;;;;;5015103;28;20041;-77
2023/01/08 06:12:01;;;;;;;25.35;15.93;;;7.70;99.90;;;;;;5030430;28;20063;-76
2023/01/08 06:14:28;;;;;;;25.27;16.85;;;7.70;99.90;;;;;;5032392;28;20437;-76
2023/01/08 06:16:55;;;;;;;26.60;17.00;;;7.70;99.90;;;;;;5018437;28;20030;-76
2023/01/08 06:19:21;;;;;;;24.27;16.83;;;7.70;99.90;;;;;;5021439;28;20068;-76
2023/01/08 06:21:48;;;;;;;25.00;15.35;;;7.70;99.90;;;;;;5024003;28;20045;-76
2023/01/08 06:24:15;;;;;;;25.45;16.75;;;7.60;99.90;;;;;;5011089;28;20080;-76
2023/01/08 06:26:42;;;;;;;28.60;17.70;;;7.60;99.90;;;;;;5034726;28;20500;-76
2023/01/08 06:29:09;;;;;;;24.77;16.40;;;7.60;99.90;;;;;;5017160;28;20044;-77
2023/01/08 06:31:35;;;;;;;25.30;15.77;;;7.60;99.90;;;;;;5032063;28;20051;-76
2023/01/08 06:34:02;;;;;;;28.27;16.88;;;7.60;99.90;;;;;;5030989;28;20076;-77
2023/01/08 06:36:29;;;;;;;32.25;18.35;;;7.60;99.90;;;;;;5023340;28;20052;-76
2023/01/08 06:38:55;;;;;;;30.00;19.02;;;7.70;99.90;;;;;;5027800;28;20045;-77
2023/01/08 06:41:22;;;;;;;27.38;17.67;;;7.70;99.90;;;;;;5009697;28;20053;-75
2023/01/08 06:43:49;;;;;;;29.15;18.38;;;7.70;99.90;;;;;;5026136;28;20046;-76
2023/01/08 06:46:15;;;;;;;28.00;18.48;;;7.60;99.90;;;;;;5023255;28;20128;-77
2023/01/08 06:48:42;;;;;;;27.35;17.15;;;7.60;99.90;;;;;;5018604;28;20801;-78
2023/01/08 06:51:09;;;;;;;33.30;20.02;;;7.60;99.90;;;;;;5031221;28;20533;-76
2023/01/08 06:53:36;;;;;;;28.95;17.35;;;7.60;99.90;;;;;;5020787;28;20124;-77
2023/01/08 06:56:03;;;;;;;29.98;18.48;;;7.60;99.90;;;;;;5034808;28;20075;-76
2023/01/08 06:58:30;;;;;;;25.02;16.02;;;7.60;99.90;;;;;;5026443;28;20121;-77
2023/01/08 07:00:57;;;;;;;32.10;18.55;;;7.70;99.90;;;;;;5027321;28;20044;-76
2023/01/08 07:03:24;;;;;;;26.55;17.35;;;7.70;99.90;;;;;;5007475;28;20041;-77
2023/01/08 07:05:51;;;;;;;31.00;17.35;;;7.70;99.90;;;;;;5016766;28;20075;-76
2023/01/08 07:08:18;;;;;;;26.15;17.13;;;7.70;99.90;;;;;;5024005;28;20042;-77
2023/01/08 07:10:47;;;;;;;26.55;16.40;;;7.70;99.90;;;;;;5020441;28;20033;-77
2023/01/08 07:13:14;;;;;;;24.85;16.67;;;7.70;99.90;;;;;;5024438;28;20052;-77
2023/01/08 07:15:42;;;;;;;25.30;16.58;;;7.70;99.90;;;;;;5010846;28;20068;-76
2023/01/08 07:18:10;;;;;;;24.75;16.10;;;7.70;99.90;;;;;;5006687;28;20049;-77
2023/01/08 07:20:37;;;;;;;24.67;16.48;;;7.70;99.90;;;;;;5022157;28;20048;-76
2023/01/08 07:23:06;;;;;;;25.30;14.90;;;7.80;99.90;;;;;;5006950;28;20037;-77
2023/01/08 07:25:33;;;;;;;26.33;16.85;;;7.70;99.90;;;;;;5018903;28;20067;-76
2023/01/08 07:28:00;;;;;;;27.83;15.35;;;7.80;99.90;;;;;;5020372;28;20092;-76
2023/01/08 07:30:28;;;;;;;25.45;16.10;;;7.80;99.90;;;;;;5023144;28;20482;-76
2023/01/08 07:33:00;;;;;;;25.80;14.90;;;7.80;99.90;;;;;;5019788;28;20053;-77
2023/01/08 07:35:27;;;;;;;25.08;15.30;;;7.80;99.90;;;;;;5015888;28;20551;-77
2023/01/08 07:37:55;;;;;;;22.42;14.52;;;7.70;99.90;;;;;;5005265;28;20048;-76
2023/01/08 07:40:22;;;;;;;19.95;13.40;;;7.80;99.90;;;;;;5016698;28;20042;-77
2023/01/08 07:42:57;;;;;;;19.90;13.68;;;7.70;99.90;;;;;;5000362;28;20091;-76
2023/01/08 07:45:24;;;;;;;21.08;13.48;;;7.70;99.90;;;;;;5020318;28;20488;-76
2023/01/08 07:47:50;;;;;;;20.00;12.68;;;7.80;99.90;;;;;;5027624;28;20707;-75
2023/01/08 07:50:17;;;;;;;19.38;11.77;;;7.80;99.90;;;;;;5011732;28;20099;-76
2023/01/08 07:52:44;;;;;;;16.58;11.40;;;7.70;99.90;;;;;;5008647;28;20053;-75
2023/01/08 07:55:10;;;;;;;19.92;12.45;;;7.80;99.90;;;;;;5023214;28;20053;-74
2023/01/08 07:57:37;;;;;;;17.30;11.65;;;7.70;99.90;;;;;;5017949;28;20128;-76
2023/01/08 08:00:04;;;;;;;17.85;11.75;;;7.80;99.90;;;;;;5022400;28;20045;-76
2023/01/08 08:02:32;;;;;;;16.65;11.00;;;7.70;99.90;;;;;;5024539;28;20135;-74
2023/01/08 08:04:59;;;;;;;17.23;11.07;;;7.80;99.90;;;;;;5020820;28;20478;-76
2023/01/08 08:07:26;;;;;;;16.05;11.07;;;7.80;99.90;;;;;;5026425;28;20120;-75
2023/01/08 08:09:52;;;;;;;16.33;10.70;;;7.80;99.90;;;;;;5024390;28;20037;-75
2023/01/08 08:12:19;;;;;;;14.85;10.32;;;7.80;99.90;;;;;;5019064;28;20041;-76
2023/01/08 08:14:45;;;;;;;15.05;9.98;;;7.80;99.90;;;;;;5017000;28;20060;-75
2023/01/08 08:17:12;;;;;;;12.70;9.82;;;7.80;99.90;;;;;;5021633;28;20055;-76
2023/01/08 08:19:42;;;;;;;14.43;10.63;;;7.80;99.90;;;;;;5006246;28;20075;-75
2023/01/08 08:22:09;;;;;;;16.20;11.25;;;7.80;99.90;;;;;;5016655;28;20049;-76
2023/01/08 08:24:36;;;;;;;17.20;11.90;;;7.80;99.90;;;;;;5016340;28;20044;-77
2023/01/08 08:27:03;;;;;;;17.00;11.80;;;7.90;99.90;;;;;;5018556;28;20029;-75
2023/01/08 08:29:29;;;;;;;20.23;13.95;;;7.90;99.90;;;;;;5017042;28;20046;-75
2023/01/08 08:31:56;;;;;;;20.63;13.60;;;7.90;99.90;;;;;;5023291;28;20053;-76
2023/01/08 08:34:23;;;;;;;19.70;14.23;;;7.90;99.90;;;;;;5017167;28;20038;-76
2023/01/08 08:36:49;;;;;;;20.67;14.23;;;7.90;99.90;;;;;;5018009;28;20411;-76
2023/01/08 08:39:16;;;;;;;18.20;13.15;;;8.00;99.90;;;;;;5019352;28;20044;-76
2023/01/08 08:41:43;;;;;;;16.38;12.48;;;7.90;99.90;;;;;;5015354;28;20043;-75
2023/01/08 08:44:09;;;;;;;15.85;11.32;;;7.90;99.90;;;;;;5017668;28;20108;-75
2023/01/08 08:46:36;;;;;;;16.70;11.43;;;7.90;99.90;;;;;;5020226;28;20052;-75
2023/01/08 08:49:03;;;;;;;16.30;10.45;;;7.80;99.90;;;;;;5019668;28;20087;-75
2023/01/08 08:51:29;;;;;;;13.18;8.98;;;7.80;99.90;;;;;;5017769;28;20569;-75
2023/01/08 08:53:56;;;;;;;12.30;9.00;;;7.80;99.90;;;;;;5020306;28;20049;-76
2023/01/08 08:56:22;;;;;;;16.50;9.55;;;7.80;99.90;;;;;;5024120;28;20075;-76
2023/01/08 08:58:51;;;;;;;11.18;8.75;;;7.90;99.90;;;;;;5013322;28;20045;-75
2023/01/08 09:01:17;;;;;;;15.95;12.23;;;7.90;99.90;;;;;;5018018;28;20136;-76
2023/01/08 09:03:44;;;;;;;17.13;12.10;;;8.00;99.90;;;;;;5023420;28;20050;-76
2023/01/08 09:06:14;;;;;;;13.57;10.38;;;8.00;99.90;;;;;;5018557;28;20052;-75
2023/01/08 09:08:42;;;;;;;12.05;8.55;;;8.00;99.90;;;;;;5018909;28;20072;-75
2023/01/08 09:11:08;;;;;;;11.50;8.30;;;8.00;99.90;;;;;;5019842;28;20148;-76
2023/01/08 09:13:36;;;;;;;13.38;9.27;;;8.00;99.90;;;;;;5014879;28;20694;-76
2023/01/08 09:16:03;;;;;;;10.32;8.25;;;8.10;99.90;;;;;;5011583;28;20043;-75
2023/01/08 09:18:30;;;;;;;9.65;7.55;;;8.10;99.90;;;;;;5022450;28;20506;-75
2023/01/08 09:20:56;;;;;;;7.90;7.10;;;8.00;99.90;;;;;;5015048;28;20041;-77
2023/01/08 09:23:23;;;;;;;9.60;7.22;;;8.00;99.90;;;;;;5000309;28;20041;-75
2023/01/08 09:25:58;;;;;;;7.97;6.95;;;8.00;99.90;;;;;;5013468;28;20055;-75
2023/01/08 09:28:24;;;;;;;10.43;6.72;;;8.10;99.90;;;;;;5035257;28;20037;-77
2023/01/08 09:30:51;;;;;;;8.15;7.18;;;8.00;99.90;;;;;;5025690;28;20127;-76
2023/01/08 09:33:18;;;;;;;8.40;6.85;;;8.10;99.90;;;;;;5017575;28;20029;-75
2023/01/08 09:35:44;;;;;;;12.55;8.52;;;8.10;99.90;;;;;;5019369;28;20045;-75
2023/01/08 09:38:14;;;;;;;9.45;6.32;;;8.10;99.90;;;;;;5023117;28;20061;-75
2023/01/08 09:40:54;;;;;;;7.70;6.15;;;8.10;99.90;;;;;;5020423;28;20829;-75
2023/01/08 09:43:23;;;;;;;10.23;7.72;;;8.10;99.90;;;;;;5013220;28;20141;-76
2023/01/08 09:45:56;;;;;;;7.95;6.22;;;8.10;99.90;;;;;;5022184;28;20060;-76
2023/01/08 09:48:28;;;;;;;8.50;6.80;;;8.10;99.90;;;;;;5022218;28;20053;-75
2023/01/08 09:50:56;;;;;;;6.82;5.57;;;8.10;99.90;;;;;;5019881;28;20034;-75
2023/01/08 09:53:23;;;;;;;8.05;6.63;;;8.10;99.90;;;;;;5020923;28;20049;-76
2023/01/08 09:56:02;;;;;;;15.15;9.27;;;8.10;99.90;;;;;;5019741;28;20049;-77
2023/01/08 09:58:49;;;;;;;12.07;8.18;;;8.20;99.90;;;;;;5015566;28;20140;-76
2023/01/08 10:01:19;;;;;;;7.10;5.63;;;8.20;99.90;;;;;;5031668;28;20049;-76
2023/01/08 10:04:03;;;;;;;6.43;5.28;;;8.20;99.90;;;;;;5016258;28;20398;-77
2023/01/08 10:06:30;;;;;;;5.47;4.88;;;8.30;99.90;;;;;;5007847;28;20033;-76
2023/01/08 10:08:57;;;;;;;5.47;4.88;;;8.40;99.90;;;;;;5000915;28;20446;-76
2023/01/08 10:11:28;;;;;;;5.63;5.22;;;8.50;99.90;;;;;;5009486;28;20521;-76
2023/01/08 10:13:56;;;;;;;6.15;4.57;;;8.50;99.90;;;;;;5012511;28;20590;-75
2023/01/08 10:16:29;;;;;;;6.72;5.05;;;8.60;99.90;;;;;;4998057;28;20612;-76
2023/01/08 10:18:57;;;;;;;5.30;4.80;;;8.60;99.90;;;;;;5019267;28;20088;-77
2023/01/08 10:21:39;;;;;;;4.93;4.65;;;8.60;99.90;;;;;;5030196;28;20044;-77
2023/01/08 10:24:06;;;;;;;5.65;5.35;;;8.70;99.90;;;;;;5018470;28;20033;-76
2023/01/08 10:26:35;;;;;;;5.70;5.40;;;8.60;99.90;;;;;;5018822;28;20041;-78
2023/01/08 10:29:20;;;;;;;7.57;6.95;;;8.60;99.90;;;;;;5016550;28;20769;-75
2023/01/08 10:31:57;;;;;;;6.90;6.40;;;8.70;99.90;;;;;;5022959;28;20041;-76
2023/01/08 10:34:38;;;;;;;6.78;6.38;;;8.70;99.90;;;;;;5003301;28;20049;-76
2023/01/08 10:37:29;;;;;;;7.57;7.18;;;8.60;99.90;;;;;;5020472;28;20821;-76
2023/01/08 10:40:07;;;;;;;8.85;8.27;;;8.60;99.90;;;;;;5018412;28;20129;-76
2023/01/08 10:42:35;;;;;;;11.18;10.45;;;8.60;99.90;;;;;;5016622;28;20505;-77
2023/01/08 10:45:05;;;;;;;12.63;11.57;;;8.60;99.90;;;;;;5021280;28;20111;-76
2023/01/08 10:47:35;;;;;;;15.68;14.63;;;8.50;99.90;;;;;;5022142;28;20196;-76
2023/01/08 10:50:04;;;;;;;15.13;13.93;;;8.50;99.90;;;;;;5020867;28;20125;-76
2023/01/08 10:52:35;;;;;;;16.80;15.55;;;8.50;99.90;;;;;;5019124;28;20438;-76
2023/01/08 10:55:28;;;;;;;17.83;16.65;;;8.50;99.90;;;;;;5007730;28;20046;-76
2023/01/08 10:58:04;;;;;;;18.80;17.65;;;8.50;99.90;;;;;;5023463;28;20433;-75
2023/01/08 11:00:33;;;;;;;17.60;16.33;;;8.60;99.90;;;;;;5023941;28;20037;-76
2023/01/08 11:03:06;;;;;;;20.02;18.83;;;8.60;99.90;;;;;;5015502;28;20472;-75
2023/01/08 11:05:38;;;;;;;16.75;15.65;;;8.60;99.90;;;;;;5024205;28;20049;-76
2023/01/08 11:08:07;;;;;;;14.55;13.80;;;8.70;99.90;;;;;;5033406;28;20441;-76
2023/01/08 11:10:35;;;;;;;14.82;13.70;;;8.70;99.90;;;;;;5019040;28;20133;-75
2023/01/08 11:13:05;;;;;;;14.15;13.52;;;8.80;99.90;;;;;;5021648;28;20083;-76
2023/01/08 11:15:36;;;;;;;14.38;13.35;;;8.90;99.90;;;;;;5019533;28;20055;-75
2023/01/08 11:18:24;;;;;;;18.83;17.70;;;8.90;99.90;;;;;;5025479;28;20505;-75
2023/01/08 11:20:52;;;;;;;15.93;15.00;;;9.00;99.90;;;;;;5020844;28;20465;-76
2023/01/08 11:23:21;;;;;;;17.40;16.40;;;9.00;99.90;;;;;;5020615;28;20034;-75
2023/01/08 11:26:02;;;;;;;14.68;13.73;;;9.00;99.90;;;;;;5015648;28;20038;-76
2023/01/08 11:28:50;;;;;;;14.57;13.93;;;9.00;99.90;;;;;;5023480;28;20041;-76
2023/01/08 11:31:27;;;;;;;18.58;17.67;;;9.30;99.90;;;;;;5017700;28;20044;-76
2023/01/08 11:34:01;;;;;;;20.42;19.42;;;9.50;99.90;;;;;;5018280;28;20049;-76
2023/01/08 11:36:46;;;;;;;22.35;21.10;;;9.70;99.90;;;;;;5022686;28;20055;-77
2023/01/08 11:39:12;;;;;;;22.73;21.52;;;9.70;99.90;;;;;;5015998;28;20050;-77
2023/01/08 11:41:50;;;;;;;22.70;21.58;;;9.60;99.90;;;;;;5013508;28;20060;-76
2023/01/08 11:44:49;;;;;;;22.90;21.50;;;9.50;99.90;;;;;;5019522;28;20044;-76
2023/01/08 11:47:22;;;;;;;21.08;19.77;;;9.40;99.90;;;;;;5004269;28;20041;-78
2023/01/08 11:50:33;;;;;;;20.95;19.95;;;9.40;99.90;;;;;;4999146;28;20046;-77
2023/01/08 11:53:23;;;;;;;22.98;21.88;;;9.40;99.90;;;;;;4985098;28;20603;-77
2023/01/08 11:56:11;;;;;;;20.02;18.88;;;9.30;99.90;;;;;;5016668;28;20498;-77
2023/01/08 11:58:50;;;;;;;18.23;16.98;;;9.30;99.90;;;;;;5014752;28;20057;-77
2023/01/08 12:01:38;;;;;;;15.98;15.05;;;9.40;99.90;;;;;;5019679;28;20132;-77
2023/01/08 12:04:33;;;;;;;23.65;22.48;;;9.70;99.90;;;;;;5012694;28;20045;-76
2023/01/08 12:07:09;;;;;;;15.77;14.67;;;9.80;99.90;;;;;;5013698;28;20026;-76
2023/01/08 12:09:45;;;;;;;15.55;14.77;;;9.70;99.90;;;;;;5017517;28;20295;-77
2023/01/08 12:12:25;;;;;;;19.75;18.85;;;9.70;99.90;;;;;;5081652;27;20397;-74
2023/01/08 12:15:00;;;;;;;19.50;18.47;;;9.70;99.90;;;;;;5087897;28;20589;-76
2023/01/08 12:17:51;;;;;;;26.35;24.95;;;9.60;99.90;;;;;;5074194;28;20225;-74
2023/01/08 12:20:40;;;;;;;19.10;18.05;;;9.60;99.90;;;;;;5071545;28;20171;-76
2023/01/08 12:23:24;;;;;;;18.02;16.73;;;9.50;99.90;;;;;;5048166;28;20604;-75
2023/01/08 12:26:19;;;;;;;18.70;17.70;;;9.70;99.90;;;;;;5080440;28;20322;-74
2023/01/08 12:29:02;;;;;;;18.10;17.20;;;9.90;99.90;;;;;;5030970;28;20076;-75
2023/01/08 12:31:35;;;;;;;20.42;19.27;;;10.00;99.90;;;;;;5066327;28;20117;-76
2023/01/08 12:34:11;;;;;;;21.38;19.92;;;10.00;99.90;;;;;;5068592;28;20055;-75
2023/01/08 12:36:46;;;;;;;20.83;19.83;;;10.10;99.90;;;;;;5068424;28;20113;-75
2023/01/08 12:39:36;;;;;;;21.13;20.10;;;10.10;99.90;;;;;;5066155;28;20067;-75
2023/01/08 12:42:11;;;;;;;22.52;21.23;;;10.10;99.90;;;;;;5061384;28;20044;-75
2023/01/08 12:44:39;;;;;;;21.10;19.90;;;10.20;99.90;;;;;;5069545;28;20134;-75
2023/01/08 12:47:12;;;;;;;21.00;20.00;;;10.30;99.90;;;;;;5070532;28;20157;-74
2023/01/08 12:50:06;;;;;;;21.80;20.60;;;10.40;99.90;;;;;;5067593;28;20048;-74
2023/01/08 12:52:53;;;;;;;23.60;22.40;;;10.50;99.90;;;;;;5066013;28;20044;-74
2023/01/08 12:55:39;;;;;;;25.77;24.27;;;10.30;99.90;;;;;;5067298;28;20053;-74